Time;durP1;ratioP1;P1;durP2;ratioP2;P2;SDS_P1;SDS_P2;PMS_P1;PMS_P2;Temp;Humidity;BMP_temperature;BMP_pressure;BME280_temperature;BME280_humidity;BME280_pressure;Samples;Min_cycle;Max_cycle;Signal;HPM_P1;HPM_P2
2022/09/02 00:00:10;;;;;;;6.00;2.10;;;;;;;7.89;76.09;101142.42;88833;1269;86566;-60
2022/09/02 00:02:40;;;;;;;3.90;2.20;;;;;;;7.90;75.92;101140.77;88820;1269;97079;-61
2022/09/02 00:04:49;;;;;;;3.10;2.00;;;;;;;7.88;76.05;101141.27;88827;1269;80172;-60
2022/09/02 00:06:58;;;;;;;3.80;2.00;;;;;;;7.89;75.92;101135.48;88816;1269;82149;-60
2022/09/02 00:09:10;;;;;;;4.20;2.20;;;;;;;7.86;76.03;101137.92;88780;1269;98086;-61
2022/09/02 00:11:23;;;;;;;4.50;2.10;;;;;;;7.83;76.15;101132.34;88843;1269;88686;-60
2022/09/02 00:13:48;;;;;;;4.50;2.20;;;;;;;7.79;76.06;101134.83;88805;1269;93320;-61
2022/09/02 00:15:57;;;;;;;2.70;1.90;;;;;;;7.74;76.18;101130.84;88802;1269;82257;-60
2022/09/02 00:18:12;;;;;;;3.30;2.30;;;;;;;7.70;76.06;101131.89;88802;1269;82604;-59
2022/09/02 00:20:22;;;;;;;5.60;2.50;;;;;;;7.67;76.24;101127.05;88806;1269;98645;-60
2022/09/02 00:22:32;;;;;;;4.00;2.10;;;;;;;7.66;76.39;101128.41;88800;1269;87501;-59
2022/09/02 00:24:55;;;;;;;4.70;2.20;;;;;;;7.65;76.31;101130.33;88851;1269;91285;-60
2022/09/02 00:27:04;;;;;;;5.70;2.20;;;;;;;7.68;76.43;101128.80;88840;1269;78544;-59
2022/09/02 00:29:17;;;;;;;3.50;2.10;;;;;;;7.67;76.37;101127.58;88808;1269;82049;-60
2022/09/02 00:31:27;;;;;;;4.20;1.80;;;;;;;7.67;76.35;101130.13;88822;1267;98612;-59
2022/09/02 00:33:36;;;;;;;3.00;2.10;;;;;;;7.65;76.48;101129.79;88888;1269;88304;-59
2022/09/02 00:35:45;;;;;;;3.30;2.40;;;;;;;7.60;76.59;101132.41;88832;1269;94094;-60
2022/09/02 00:38:07;;;;;;;3.90;2.10;;;;;;;7.55;76.58;101135.55;88836;1269;80772;-59
2022/09/02 00:40:22;;;;;;;3.40;2.00;;;;;;;7.53;76.72;101140.31;88859;1269;82318;-59
2022/09/02 00:42:33;;;;;;;6.70;2.00;;;;;;;7.49;76.62;101133.68;88882;1269;97973;-59
2022/09/02 00:44:46;;;;;;;4.40;2.10;;;;;;;7.49;76.59;101139.92;88863;1269;88528;-60
2022/09/02 00:47:07;;;;;;;5.10;2.20;;;;;;;7.46;76.79;101137.98;88820;1269;94147;-60
2022/09/02 00:49:24;;;;;;;3.80;1.90;;;;;;;7.47;76.80;101139.86;88827;1269;79437;-60
2022/09/02 00:51:41;;;;;;;4.70;2.40;;;;;;;7.43;77.02;101140.04;88841;1269;80519;-60
2022/09/02 00:53:51;;;;;;;4.90;2.00;;;;;;;7.44;77.04;101141.36;88826;1269;97873;-60
2022/09/02 00:56:02;;;;;;;3.30;1.80;;;;;;;7.42;76.93;101138.94;88802;1269;87210;-61
2022/09/02 00:58:24;;;;;;;3.70;2.20;;;;;;;7.39;76.97;101140.08;88801;1269;94964;-61
2022/09/02 01:00:43;;;;;;;8.20;2.10;;;;;;;7.36;77.00;101138.55;88809;1269;80899;-60
2022/09/02 01:02:55;;;;;;;3.20;1.90;;;;;;;7.36;77.04;101141.48;88828;1269;82011;-60
2022/09/02 01:05:08;;;;;;;5.10;2.00;;;;;;;7.36;77.04;101140.55;88705;1271;98456;-59
2022/09/02 01:07:29;;;;;;;4.70;1.60;;;;;;;7.37;77.11;101142.23;88829;1269;89026;-60
2022/09/02 01:09:39;;;;;;;3.90;1.90;;;;;;;7.43;77.10;101142.95;88841;1269;95302;-61
2022/09/02 01:11:52;;;;;;;2.90;1.70;;;;;;;7.45;77.14;101140.45;88825;1269;79301;-60
2022/09/02 01:14:05;;;;;;;3.10;1.60;;;;;;;7.45;77.26;101143.08;88857;1269;81469;-60
2022/09/02 01:16:23;;;;;;;;;;;;;;;7.47;77.12;101136.21;88854;1269;98767;-59
2022/09/02 01:18:35;;;;;;;3.40;1.50;;;;;;;7.46;77.18;101138.70;88848;1269;87805;-59
2022/09/02 01:20:47;;;;;;;4.80;1.70;;;;;;;7.41;77.46;101139.57;88839;1269;94670;-59
2022/09/02 01:22:58;;;;;;;4.20;1.80;;;;;;;7.34;77.45;101141.67;88863;1269;81326;-59
2022/09/02 01:25:14;;;;;;;2.90;1.80;;;;;;;7.30;77.63;101143.73;88849;1269;82721;-59
2022/09/02 01:27:36;;;;;;;3.20;1.70;;;;;;;7.29;77.55;101144.48;88819;1269;97328;-59
2022/09/02 01:29:50;;;;;;;3.70;1.80;;;;;;;7.31;77.66;101148.65;88825;1269;87484;-60
2022/09/02 01:31:59;;;;;;;5.10;2.10;;;;;;;7.33;77.50;101146.23;88811;1269;94487;-59
2022/09/02 01:34:10;;;;;;;5.80;2.20;;;;;;;7.38;77.53;101148.08;88809;1269;79071;-58
2022/09/02 01:36:21;;;;;;;5.50;2.40;;;;;;;7.35;77.71;101147.14;88815;1269;82758;-60
2022/09/02 01:38:42;;;;;;;3.80;1.90;;;;;;;7.31;77.90;101148.09;88847;1269;98079;-60
2022/09/02 01:40:53;;;;;;;6.20;1.80;;;;;;;7.28;77.90;101145.66;88793;1269;87177;-60
2022/09/02 01:43:11;;;;;;;4.20;1.80;;;;;;;7.20;77.92;101145.77;88808;1269;93228;-60
2022/09/02 01:45:30;;;;;;;4.50;1.80;;;;;;;7.13;77.98;101145.58;88780;1269;80721;-60
2022/09/02 01:47:45;;;;;;;4.40;2.10;;;;;;;7.08;77.84;101142.48;88758;1269;81710;-59
2022/09/02 01:49:54;;;;;;;4.90;1.80;;;;;;;7.05;77.79;101142.05;88810;1269;98813;-60
2022/09/02 01:52:05;;;;;;;4.60;1.80;;;;;;;7.03;77.78;101149.22;88884;1269;88878;-60
2022/09/02 01:54:15;;;;;;;3.90;2.30;;;;;;;7.02;77.93;101146.10;88812;1269;93801;-60
2022/09/02 01:56:26;;;;;;;3.40;1.90;;;;;;;6.98;77.99;101149.17;88839;1269;79528;-60
2022/09/02 01:58:35;;;;;;;6.10;1.90;;;;;;;6.92;78.06;101147.05;88846;1269;82439;-59
2022/09/02 02:00:55;;;;;;;3.90;2.20;;;;;;;6.90;78.04;101143.50;88835;1269;98070;-60
2022/09/02 02:03:06;;;;;;;4.60;1.90;;;;;;;6.83;78.17;101143.45;88862;1269;87250;-61
2022/09/02 02:05:23;;;;;;;5.20;1.70;;;;;;;6.79;78.35;101143.46;88813;1269;94281;-60
2022/09/02 02:07:53;;;;;;;5.70;2.00;;;;;;;6.77;78.33;101139.36;88792;1269;80380;-60
2022/09/02 02:10:02;;;;;;;4.00;1.90;;;;;;;6.71;78.32;101143.06;88833;1269;82273;-60
2022/09/02 02:12:22;;;;;;;8.10;2.00;;;;;;;6.68;78.23;101147.81;88711;1271;97293;-60
2022/09/02 02:14:34;;;;;;;3.50;1.90;;;;;;;6.68;78.25;101148.89;88836;1268;88004;-60
2022/09/02 02:16:58;;;;;;;3.30;1.70;;;;;;;6.68;78.25;101148.52;88814;1269;94813;-59
2022/09/02 02:19:06;;;;;;;;;;;;;;;6.69;78.42;101148.24;88840;1269;78975;-60
2022/09/02 02:21:16;;;;;;;4.60;1.70;;;;;;;6.69;78.54;101146.12;88845;1269;81519;-61
2022/09/02 02:23:25;;;;;;;4.70;2.20;;;;;;;6.72;78.32;101147.98;88791;1269;98597;-60
2022/09/02 02:25:35;;;;;;;3.70;1.90;;;;;;;6.76;78.33;101145.45;88822;1269;86094;-59
2022/09/02 02:27:56;;;;;;;4.60;2.00;;;;;;;6.74;78.41;101145.65;88778;1269;93847;-61
2022/09/02 02:30:07;;;;;;;4.60;1.90;;;;;;;6.68;78.63;101143.36;88827;1269;80956;-60
2022/09/02 02:32:18;;;;;;;2.30;1.70;;;;;;;6.62;78.63;101147.14;88828;1269;81815;-59
2022/09/02 02:34:29;;;;;;;3.20;1.90;;;;;;;6.55;78.63;101148.98;88813;1269;96905;-60
2022/09/02 02:36:39;;;;;;;3.80;2.20;;;;;;;6.54;78.73;101147.72;88766;1269;88533;-60
2022/09/02 02:39:00;;;;;;;3.70;1.90;;;;;;;6.52;78.61;101150.22;88773;1269;95348;-60
2022/09/02 02:41:10;;;;;;;3.50;1.60;;;;;;;6.50;78.72;101149.67;88824;1269;81175;-61
2022/09/02 02:43:19;;;;;;;3.40;2.10;;;;;;;6.52;78.72;101152.50;88872;1269;82335;-60
2022/09/02 02:45:29;;;;;;;4.20;1.90;;;;;;;6.53;78.65;101149.79;88777;1270;98124;-60
2022/09/02 02:47:41;;;;;;;6.40;2.10;;;;;;;6.53;78.69;101150.33;88745;1271;87383;-60
2022/09/02 02:49:52;;;;;;;3.80;2.10;;;;;;;6.51;78.78;101145.77;88806;1269;94015;-61
2022/09/02 02:52:11;;;;;;;5.00;2.00;;;;;;;6.55;78.82;101148.48;88814;1269;80828;-59
2022/09/02 02:54:23;;;;;;;3.50;1.70;;;;;;;6.52;78.89;101147.69;88818;1269;82169;-61
2022/09/02 02:56:32;;;;;;;7.20;2.00;;;;;;;6.47;78.95;101144.91;88700;1270;96830;-60
2022/09/02 02:58:43;;;;;;;5.80;2.40;;;;;;;6.44;78.88;101143.46;88787;1270;88144;-60
2022/09/02 03:00:55;;;;;;;4.30;1.70;;;;;;;6.44;79.04;101139.71;88818;1272;94323;-60
2022/09/02 03:03:08;;;;;;;5.10;2.10;;;;;;;6.41;78.90;101141.92;88785;1270;79827;-61
2022/09/02 03:05:26;;;;;;;5.10;2.30;;;;;;;6.35;78.83;101138.39;88827;1270;82723;-61
2022/09/02 03:07:36;;;;;;;6.10;2.50;;;;;;;6.30;79.00;101141.59;88830;1270;98485;-61
2022/09/02 03:09:45;;;;;;;5.10;2.20;;;;;;;6.24;78.88;101139.25;88811;1272;88924;-60
2022/09/02 03:11:57;;;;;;;3.90;2.50;;;;;;;6.21;78.78;101137.41;88762;1270;95390;-60
2022/09/02 03:14:06;;;;;;;3.50;2.00;;;;;;;6.20;78.95;101137.02;88776;1270;81208;-60
2022/09/02 03:16:19;;;;;;;3.80;2.10;;;;;;;6.20;78.76;101137.70;88825;1270;83149;-60
2022/09/02 03:18:27;;;;;;;5.70;1.90;;;;;;;6.21;78.90;101138.81;88823;1270;98456;-61
2022/09/02 03:20:46;;;;;;;4.00;2.20;;;;;;;6.19;78.91;101136.17;88845;1270;87337;-60
2022/09/02 03:22:58;;;;;;;5.30;2.20;;;;;;;6.20;79.11;101137.48;87729;1270;1470270;-60
2022/09/02 03:25:12;;;;;;;13.30;2.40;;;;;;;6.23;79.20;101134.05;88795;1270;80948;-60
2022/09/02 03:27:20;;;;;;;12.30;2.20;;;;;;;6.26;79.05;101139.09;88849;1271;80688;-60
2022/09/02 03:29:31;;;;;;;8.00;2.70;;;;;;;6.28;79.06;101143.55;88822;1270;98816;-60
2022/09/02 03:31:41;;;;;;;4.00;2.40;;;;;;;6.29;79.08;101145.11;88862;1270;86711;-59
2022/09/02 03:34:03;;;;;;;4.40;2.50;;;;;;;6.26;79.08;101146.05;88808;1271;94186;-60
2022/09/02 03:36:23;;;;;;;4.30;2.90;;;;;;;6.23;79.14;101146.13;88817;1270;81341;-59
2022/09/02 03:38:32;;;;;;;7.80;2.30;;;;;;;6.15;79.22;101152.30;88853;1271;81258;-60
2022/09/02 03:40:41;;;;;;;7.00;2.70;;;;;;;6.09;79.08;101151.80;88806;1270;97542;-60
2022/09/02 03:42:53;;;;;;;4.30;2.00;;;;;;;6.07;79.32;101155.75;88825;1270;88176;-60
2022/09/02 03:45:07;;;;;;;4.00;2.20;;;;;;;6.04;79.17;101160.50;88779;1270;92850;-60
2022/09/02 03:47:20;;;;;;;6.20;2.10;;;;;;;6.05;79.14;101164.73;88801;1269;80753;-60
2022/09/02 03:49:31;;;;;;;4.20;2.20;;;;;;;6.08;78.97;101166.01;88806;1272;82147;-60
2022/09/02 03:51:43;;;;;;;5.40;3.20;;;;;;;6.06;79.18;101168.34;88764;1269;98239;-61
2022/09/02 03:53:52;;;;;;;5.30;2.10;;;;;;;6.06;79.12;101174.45;88821;1269;88136;-60
2022/09/02 03:56:11;;;;;;;3.90;2.20;;;;;;;6.06;79.14;101173.88;88815;1269;94074;-59
2022/09/02 03:58:21;;;;;;;4.10;1.90;;;;;;;6.09;79.10;101173.06;88793;1269;80682;-59
2022/09/02 04:00:32;;;;;;;5.60;3.60;;;;;;;6.10;79.36;101176.59;88820;1270;82775;-61
2022/09/02 04:02:42;;;;;;;3.90;2.20;;;;;;;6.09;79.46;101174.86;88818;1269;98042;-60
2022/09/02 04:04:51;;;;;;;3.80;2.40;;;;;;;6.06;79.46;101175.31;88837;1269;87891;-59
2022/09/02 04:07:10;;;;;;;3.80;2.20;;;;;;;6.08;79.57;101183.19;88652;1272;93568;-60
2022/09/02 04:09:28;;;;;;;5.40;2.20;;;;;;;6.07;79.57;101185.93;88820;1269;82402;-60
2022/09/02 04:11:42;;;;;;;5.40;1.90;;;;;;;6.11;79.51;101189.86;88827;1269;82336;-59
2022/09/02 04:13:54;;;;;;;5.20;2.20;;;;;;;6.18;79.47;101187.20;88819;1270;98235;-60
2022/09/02 04:16:14;;;;;;;5.70;2.10;;;;;;;6.23;79.66;101185.14;88813;1270;87467;-60
2022/09/02 04:18:24;;;;;;;4.50;1.90;;;;;;;6.28;79.41;101187.17;88848;1269;94416;-60
2022/09/02 04:20:33;;;;;;;3.60;2.10;;;;;;;6.34;79.60;101184.34;88827;1271;80606;-58
2022/09/02 04:22:45;;;;;;;4.20;2.30;;;;;;;6.42;79.66;101183.39;88810;1267;81645;-59
2022/09/02 04:25:06;;;;;;;5.00;2.60;;;;;;;6.47;79.82;101188.55;88811;1269;97833;-59
2022/09/02 04:27:21;;;;;;;5.60;2.60;;;;;;;6.63;79.80;101187.65;88809;1269;87831;-60
2022/09/02 04:29:34;;;;;;;4.90;2.60;;;;;;;7.00;79.44;101187.09;88837;1269;93458;-60
2022/09/02 04:31:44;;;;;;;6.00;2.20;;;;;;;7.04;79.51;101187.58;88824;1269;79149;-59
2022/09/02 04:33:59;;;;;;;5.50;2.30;;;;;;;7.03;79.28;101188.39;88817;1269;81319;-61
2022/09/02 04:36:32;;;;;;;4.90;2.40;;;;;;;7.03;79.37;101189.31;88767;1270;98917;-59
2022/09/02 04:38:43;;;;;;;5.80;2.60;;;;;;;7.08;79.30;101186.66;88809;1269;88492;-61
2022/09/02 04:40:57;;;;;;;3.20;1.90;;;;;;;7.34;79.40;101185.60;88779;1269;94481;-61
2022/09/02 04:43:07;;;;;;;;;;;;;;;7.87;79.33;101186.19;88802;1269;80950;-60
2022/09/02 04:45:18;;;;;;;7.20;2.20;;;;;;;7.99;78.91;101187.37;88843;1269;82053;-60
2022/09/02 04:47:33;;;;;;;8.30;2.30;;;;;;;8.08;79.04;101185.70;88807;1269;98615;-60
2022/09/02 04:49:43;;;;;;;5.00;2.20;;;;;;;8.28;78.98;101187.91;88837;1269;88088;-61
2022/09/02 04:51:53;;;;;;;9.70;2.70;;;;;;;8.31;78.92;101186.63;88773;1269;94770;-61
2022/09/02 04:54:07;;;;;;;17.60;3.10;;;;;;;8.37;78.86;101185.27;88826;1271;81082;-60
2022/09/02 04:56:20;;;;;;;12.80;3.70;;;;;;;8.44;78.82;101184.23;88831;1269;81243;-61
2022/09/02 04:58:29;;;;;;;13.80;2.90;;;;;;;8.47;79.00;101181.37;88788;1269;96392;-60
2022/09/02 05:00:41;;;;;;;19.30;3.80;;;;;;;8.54;78.83;101179.14;88795;1270;88552;-60
2022/09/02 05:02:55;;;;;;;23.50;3.80;;;;;;;8.64;78.77;101180.97;88852;1270;94211;-60
2022/09/02 05:05:06;;;;;;;24.80;3.40;;;;;;;8.72;79.03;101180.77;88822;1273;81380;-59
2022/09/02 05:07:16;;;;;;;19.90;3.40;;;;;;;8.79;78.97;101182.48;88849;1270;82108;-59
2022/09/02 05:09:28;;;;;;;17.50;2.90;;;;;;;8.87;79.13;101185.34;88834;1269;97947;-59
2022/09/02 05:11:46;;;;;;;17.50;3.00;;;;;;;8.97;79.09;101189.09;88641;1271;88203;-59
2022/09/02 05:14:01;;;;;;;14.80;3.00;;;;;;;9.11;78.95;101195.86;88786;1269;95269;-61
2022/09/02 05:16:10;;;;;;;17.20;4.20;;;;;;;9.21;79.06;101196.02;88816;1269;80031;-60
2022/09/02 05:18:21;;;;;;;11.30;3.30;;;;;;;9.32;79.04;101195.23;88852;1271;82652;-59
2022/09/02 05:20:42;;;;;;;16.80;3.60;;;;;;;9.44;79.07;101192.83;88807;1269;99010;-59
2022/09/02 05:22:51;;;;;;;14.10;3.70;;;;;;;9.59;79.04;101191.41;88817;1271;88858;-60
2022/09/02 05:25:00;;;;;;;10.10;2.70;;;;;;;9.79;78.97;101193.77;88785;1270;93157;-61
2022/09/02 05:27:10;;;;;;;7.30;2.20;;;;;;;10.20;79.09;101192.55;88775;1269;80558;-60
2022/09/02 05:29:19;;;;;;;10.70;3.20;;;;;;;11.92;79.55;101185.08;88765;1269;81661;-60
2022/09/02 05:31:36;;;;;;;8.40;2.50;;;;;;;14.34;78.27;101180.16;88787;1271;97426;-60
2022/09/02 05:33:48;;;;;;;6.20;2.40;;;;;;;16.82;75.49;101180.67;88845;1275;88114;-60
2022/09/02 05:35:58;;;;;;;6.20;2.20;;;;;;;18.82;72.30;101181.64;88797;1269;94955;-60
2022/09/02 05:38:07;;;;;;;4.40;2.10;;;;;;;20.34;70.09;101177.06;88805;1270;79968;-61
2022/09/02 05:40:18;;;;;;;5.70;2.40;;;;;;;21.52;68.43;101175.96;88806;1271;80958;-61
2022/09/02 05:42:30;;;;;;;10.00;2.90;;;;;;;22.64;65.61;101175.90;88818;1270;98162;-61
2022/09/02 05:44:43;;;;;;;3.60;2.10;;;;;;;23.36;62.82;101175.25;88856;1271;86802;-60
2022/09/02 05:46:54;;;;;;;5.20;2.00;;;;;;;23.96;60.80;101178.63;88773;1271;93579;-60
2022/09/02 05:49:11;;;;;;;7.80;2.40;;;;;;;24.83;58.83;101178.97;88818;1271;80366;-61
2022/09/02 05:51:25;;;;;;;7.00;2.70;;;;;;;25.72;56.94;101177.84;88885;1269;81363;-61
2022/09/02 05:53:34;;;;;;;4.80;2.20;;;;;;;26.35;54.38;101177.52;88858;1270;98151;-60
2022/09/02 05:55:45;;;;;;;6.20;2.70;;;;;;;26.71;52.21;101178.72;88873;1271;87909;-60
2022/09/02 05:57:59;;;;;;;5.80;2.30;;;;;;;27.25;50.65;101178.41;88834;1272;95278;-60
2022/09/02 06:00:11;;;;;;;7.80;2.80;;;;;;;27.71;49.13;101173.08;88834;1271;80283;-60
2022/09/02 06:02:23;;;;;;;7.60;2.90;;;;;;;28.02;47.36;101178.00;88869;1271;82080;-61
2022/09/02 06:04:32;;;;;;;5.60;2.20;;;;;;;28.39;46.45;101172.99;88789;1270;97802;-60
2022/09/02 06:06:42;;;;;;;3.80;1.90;;;;;;;28.57;45.12;101174.48;88804;1270;87726;-61
2022/09/02 06:08:52;;;;;;;5.60;2.60;;;;;;;28.90;44.11;101170.27;88809;1270;95331;-61
2022/09/02 06:11:03;;;;;;;5.20;2.00;;;;;;;29.42;42.88;101166.48;88801;1270;80443;-60
2022/09/02 06:13:16;;;;;;;4.50;1.90;;;;;;;29.76;41.13;101168.76;88829;1270;81966;-60
2022/09/02 06:15:27;;;;;;;4.20;1.80;;;;;;;29.94;40.72;101171.27;88788;1271;97854;-60
2022/09/02 06:17:39;;;;;;;5.20;1.60;;;;;;;30.08;39.85;101167.84;88773;1271;89177;-59
2022/09/02 06:19:54;;;;;;;4.20;1.80;;;;;;;30.04;37.78;101166.73;88803;1271;95311;-60
2022/09/02 06:22:05;;;;;;;5.00;1.70;;;;;;;30.17;37.51;101168.38;88806;1270;80672;-61
2022/09/02 06:24:15;;;;;;;5.40;1.60;;;;;;;29.67;37.84;101164.11;88817;1270;82389;-60
2022/09/02 06:26:24;;;;;;;3.90;1.50;;;;;;;28.73;37.16;101167.55;88822;1270;97362;-60
2022/09/02 06:28:37;;;;;;;3.50;1.70;;;;;;;27.18;38.59;101171.40;88809;1270;87607;-61
2022/09/02 06:30:50;;;;;;;3.90;2.50;;;;;;;25.73;39.54;101178.45;88787;1270;93829;-60
2022/09/02 06:33:02;;;;;;;8.00;4.20;;;;;;;25.24;39.83;101176.56;88848;1270;79410;-61
2022/09/02 06:35:12;;;;;;;13.50;5.60;;;;;;;24.23;40.42;101179.43;88852;1270;82208;-61
2022/09/02 06:37:22;;;;;;;14.20;7.10;;;;;;;23.61;40.88;101179.96;88828;1270;98767;-61
2022/09/02 06:39:33;;;;;;;20.00;10.90;;;;;;;23.60;41.08;101180.50;88801;1271;87482;-62
2022/09/02 06:41:45;;;;;;;18.60;7.50;;;;;;;23.50;40.81;101184.00;88811;1270;93999;-61
2022/09/02 06:43:55;;;;;;;33.70;7.30;;;;;;;22.69;41.46;101189.00;88783;1270;80393;-62
2022/09/02 06:46:06;;;;;;;11.10;4.70;;;;;;;21.88;41.90;101190.98;88793;1271;83230;-60
2022/09/02 06:48:16;;;;;;;22.70;6.70;;;;;;;21.67;42.82;101190.74;88816;1270;98595;-60
2022/09/02 06:50:25;;;;;;;18.90;6.90;;;;;;;21.11;43.27;101189.38;88783;1270;87988;-60
2022/09/02 06:52:37;;;;;;;17.00;5.90;;;;;;;20.49;44.24;101188.47;88780;1270;94706;-61
2022/09/02 06:54:47;;;;;;;20.20;4.70;;;;;;;20.01;44.96;101193.52;88773;1270;79820;-59
2022/09/02 06:56:58;;;;;;;20.40;4.20;;;;;;;19.67;45.51;101197.47;88818;1271;82020;-59
2022/09/02 06:59:10;;;;;;;23.60;5.00;;;;;;;19.64;46.01;101198.80;88811;1270;98154;-61
2022/09/02 07:01:27;;;;;;;51.00;6.80;;;;;;;19.88;45.94;101201.64;88821;1270;87435;-61
2022/09/02 07:06:09;;;;;;;24.50;7.20;;;;;;;20.99;46.23;101197.54;88804;1270;79637;-60
2022/09/02 07:08:21;;;;;;;28.00;8.60;;;;;;;21.51;45.94;101196.45;88806;1270;82648;-60
2022/09/02 07:10:33;;;;;;;30.80;8.90;;;;;;;22.73;44.71;101197.52;88792;1270;98920;-60
2022/09/02 07:12:43;;;;;;;14.90;5.60;;;;;;;22.86;43.03;101197.86;88830;1270;87762;-60
2022/09/02 07:14:54;;;;;;;13.60;4.30;;;;;;;22.65;43.25;101197.48;88827;1270;94047;-60
2022/09/02 07:17:05;;;;;;;9.60;4.00;;;;;;;22.70;43.19;101199.02;88821;1270;78993;-62
2022/09/02 07:19:17;;;;;;;14.90;6.00;;;;;;;22.71;42.91;101200.75;88857;1270;83213;-63
2022/09/02 07:21:27;;;;;;;6.10;2.50;;;;;;;23.04;42.62;101198.80;88805;1270;98225;-62
2022/09/02 07:23:39;;;;;;;3.50;2.10;;;;;;;23.71;42.07;101194.33;88838;1270;88302;-64
2022/09/02 07:25:49;;;;;;;4.60;1.40;;;;;;;24.56;40.27;101192.55;88803;1270;93848;-64
2022/09/02 07:28:00;;;;;;;11.80;4.80;;;;;;;24.98;39.26;101189.17;88807;1270;80100;-62
2022/09/02 07:30:14;;;;;;;9.30;3.70;;;;;;;24.67;39.21;101196.95;88866;1270;81473;-62
2022/09/02 07:32:29;;;;;;;13.40;5.60;;;;;;;24.56;39.53;101195.31;88810;1270;98318;-63
2022/09/02 07:34:38;;;;;;;17.90;9.40;;;;;;;24.43;39.54;101196.29;88873;1270;87466;-62
2022/09/02 07:36:48;;;;;;;27.30;12.50;;;;;;;24.94;39.45;101193.59;88809;1269;95359;-63
2022/09/02 07:38:58;;;;;;;16.80;7.70;;;;;;;25.74;39.44;101190.48;88806;1270;80310;-62
2022/09/02 07:41:12;;;;;;;9.00;3.50;;;;;;;26.57;38.32;101193.89;88836;1275;81926;-62
2022/09/02 07:43:25;;;;;;;7.40;3.30;;;;;;;26.57;37.99;101193.89;88774;1270;98657;-63
2022/09/02 07:45:36;;;;;;;6.40;1.80;;;;;;;26.63;38.09;101192.95;88813;1270;88449;-61
2022/09/02 07:47:49;;;;;;;14.60;5.20;;;;;;;27.08;38.37;101194.14;88821;1270;95467;-62
2022/09/02 07:49:59;;;;;;;6.90;2.60;;;;;;;27.50;38.23;101193.17;88776;1270;80472;-64
2022/09/02 07:52:17;;;;;;;5.20;2.40;;;;;;;28.35;37.01;101194.21;88789;1270;82850;-62
2022/09/02 07:54:29;;;;;;;6.10;2.70;;;;;;;29.27;34.83;101193.41;88847;1270;98042;-63
2022/09/02 07:56:44;;;;;;;7.30;2.60;;;;;;;29.59;34.76;101188.33;88819;1270;86910;-63
2022/09/02 07:58:55;;;;;;;6.60;2.70;;;;;;;29.96;33.92;101191.75;88807;1270;94421;-62
2022/09/02 08:01:04;;;;;;;5.00;1.50;;;;;;;29.96;34.15;101188.64;88836;1270;78721;-63
2022/09/02 08:03:19;;;;;;;9.50;3.30;;;;;;;29.73;34.08;101186.10;88855;1270;81694;-62
2022/09/02 08:05:30;;;;;;;6.70;2.50;;;;;;;29.54;33.96;101191.35;88841;1270;99130;-60
2022/09/02 08:07:42;;;;;;;6.50;2.20;;;;;;;29.55;33.90;101190.45;88811;1270;87898;-60
2022/09/02 08:09:50;;;;;;;;;;;;;;;29.42;33.41;101184.20;88851;1269;94294;-61
2022/09/02 08:12:01;;;;;;;10.80;2.40;;;;;;;29.43;33.21;101185.79;88802;1270;80365;-62
2022/09/02 08:14:24;;;;;;;5.20;1.80;;;;;;;29.86;32.91;101189.80;88778;1270;81720;-62
2022/09/02 08:16:37;;;;;;;9.00;2.40;;;;;;;30.40;31.55;101192.82;88786;1270;98464;-63
2022/09/02 08:18:48;;;;;;;5.90;2.60;;;;;;;30.20;31.26;101187.10;88838;1270;88207;-63
2022/09/02 08:20:59;;;;;;;4.70;1.20;;;;;;;30.47;30.45;101192.88;88811;1270;94990;-63
2022/09/02 08:23:10;;;;;;;;;;;;;;;30.95;30.19;101190.66;88856;1270;79636;-62
2022/09/02 08:25:20;;;;;;;4.00;1.50;;;;;;;31.29;29.45;101189.42;88844;1270;81050;-61
2022/09/02 08:27:37;;;;;;;2.90;1.70;;;;;;;31.64;29.07;101187.04;88836;1267;97866;-62
2022/09/02 08:29:47;;;;;;;2.70;1.30;;;;;;;32.01;28.61;101183.59;88827;1270;89221;-62
2022/09/02 08:31:56;;;;;;;5.60;2.40;;;;;;;32.22;28.95;101180.32;88829;1270;95232;-61
2022/09/02 08:34:11;;;;;;;5.10;2.80;;;;;;;32.31;28.68;101180.66;88864;1270;79720;-61
2022/09/02 08:36:21;;;;;;;8.20;2.60;;;;;;;32.21;28.33;101180.61;88809;1270;82583;-60
2022/09/02 08:38:31;;;;;;;5.80;2.80;;;;;;;32.36;28.13;101180.05;88821;1270;99005;-64
2022/09/02 08:40:44;;;;;;;5.40;2.50;;;;;;;32.42;28.35;101182.80;88790;1270;88289;-63
2022/09/02 08:42:56;;;;;;;4.30;1.80;;;;;;;32.34;27.45;101179.54;88815;1270;94556;-62
2022/09/02 08:45:17;;;;;;;3.40;1.10;;;;;;;32.10;27.29;101178.86;88823;1270;79702;-62
2022/09/02 08:47:30;;;;;;;3.60;1.60;;;;;;;32.14;26.75;101179.55;88800;1270;82856;-61
2022/09/02 08:49:52;;;;;;;3.40;1.90;;;;;;;31.85;26.85;101173.50;88874;1270;96464;-63
2022/09/02 08:52:05;;;;;;;6.20;2.20;;;;;;;31.45;26.77;101178.91;88813;1269;87944;-63
2022/09/02 08:54:26;;;;;;;4.30;2.60;;;;;;;31.04;26.98;101182.35;88814;1264;92624;-60
2022/09/02 08:56:36;;;;;;;5.00;1.90;;;;;;;30.93;27.01;101180.36;88775;1269;80875;-64
2022/09/02 08:58:52;;;;;;;4.30;1.30;;;;;;;30.64;26.93;101181.89;88792;1270;83040;-63
2022/09/02 09:01:11;;;;;;;13.40;3.30;;;;;;;30.20;26.95;101179.52;88819;1270;98406;-62
2022/09/02 09:03:29;;;;;;;5.90;1.30;;;;;;;30.16;26.41;101180.71;88850;1270;88399;-60
2022/09/02 09:05:50;;;;;;;3.70;1.10;;;;;;;30.54;26.47;101180.11;88871;1270;95193;-62
2022/09/02 09:08:10;;;;;;;4.50;1.20;;;;;;;30.38;26.29;101178.89;88838;1269;80171;-64
2022/09/02 09:10:32;;;;;;;3.30;0.90;;;;;;;30.33;25.58;101176.45;88860;1270;81567;-63
2022/09/02 09:13:01;;;;;;;7.30;1.40;;;;;;;30.29;26.42;101171.44;88816;1270;97395;-61
2022/09/02 09:15:22;;;;;;;3.60;1.30;;;;;;;30.23;26.65;101164.94;88796;1270;87408;-64
2022/09/02 09:17:43;;;;;;;9.70;2.70;;;;;;;30.53;26.52;101164.52;88836;1270;95413;-64
2022/09/02 09:19:58;;;;;;;3.20;1.40;;;;;;;30.58;26.38;101163.36;88814;1270;79958;-62
2022/09/02 09:22:11;;;;;;;5.20;1.50;;;;;;;30.60;25.96;101159.31;88847;1269;82539;-64
2022/09/02 09:24:35;;;;;;;2.40;1.20;;;;;;;30.39;25.63;101165.22;88831;1270;98261;-64
2022/09/02 09:26:47;;;;;;;1.50;0.80;;;;;;;29.95;25.45;101164.05;88837;1269;89191;-65
2022/09/02 09:29:05;;;;;;;3.30;1.20;;;;;;;29.60;25.78;101161.27;88855;1270;94833;-65
2022/09/02 09:31:21;;;;;;;3.50;1.00;;;;;;;28.95;26.19;101163.11;88777;1269;79537;-66
2022/09/02 09:33:30;;;;;;;2.80;0.90;;;;;;;28.30;26.46;101162.73;88802;1269;82785;-66
2022/09/02 09:35:54;;;;;;;1.50;0.70;;;;;;;27.55;26.80;101159.19;88801;1269;98591;-64
2022/09/02 09:38:14;;;;;;;1.80;0.60;;;;;;;26.79;27.59;101157.75;88855;1269;88807;-63
2022/09/02 09:40:36;;;;;;;3.90;1.20;;;;;;;26.70;28.31;101162.19;88797;1272;94253;-64
2022/09/02 09:42:46;;;;;;;6.20;2.10;;;;;;;26.42;28.26;101160.11;88829;1269;80427;-63
2022/09/02 09:44:57;;;;;;;4.40;1.10;;;;;;;25.94;28.01;101160.20;88842;1270;82573;-63
2022/09/02 09:47:09;;;;;;;2.10;0.90;;;;;;;25.61;28.11;101156.11;88811;1270;98763;-62
2022/09/02 09:49:32;;;;;;;2.40;0.80;;;;;;;25.31;28.48;101154.99;88840;1270;88255;-64
2022/09/02 09:51:55;;;;;;;3.40;2.10;;;;;;;24.98;29.02;101151.78;88827;1269;93759;-63
2022/09/02 09:56:41;;;;;;;4.60;1.60;;;;;;;24.09;30.11;101152.89;86880;1296;599999;-63
2022/09/02 09:58:53;;;;;;;5.30;1.50;;;;;;;23.85;30.47;101155.27;88627;1273;79661;-64
2022/09/02 10:01:17;;;;;;;11.70;1.50;;;;;;;23.69;29.94;101149.67;88591;1273;82579;-65
2022/09/02 10:03:30;;;;;;;2.90;1.10;;;;;;;23.55;29.94;101150.09;88580;1273;96606;-63
2022/09/02 10:05:43;;;;;;;2.50;0.80;;;;;;;23.51;30.27;101145.84;88437;1275;89038;-63
2022/09/02 10:08:01;;;;;;;1.00;0.60;;;;;;;23.38;30.42;101145.02;88577;1273;95469;-64
2022/09/02 10:10:26;;;;;;;9.60;1.30;;;;;;;23.34;30.66;101144.71;88195;1272;516206;-64
2022/09/02 10:12:37;;;;;;;6.60;1.10;;;;;;;22.90;30.66;101142.75;89029;1265;82337;-64
2022/09/02 10:14:53;;;;;;;6.00;0.90;;;;;;;22.75;31.31;101135.85;89031;1267;97581;-60
2022/09/02 10:17:18;;;;;;;1.40;0.70;;;;;;;22.75;31.43;101133.59;89028;1265;87124;-61
2022/09/02 10:19:38;;;;;;;3.50;1.20;;;;;;;22.71;31.61;101130.77;89028;1265;94941;-60
2022/09/02 10:22:22;;;;;;;3.30;1.40;;;;;;;22.58;31.93;101131.30;89000;1265;79245;-60
2022/09/02 10:24:47;;;;;;;;;;;;;;;22.55;32.16;101129.26;89058;1265;81091;-58
2022/09/02 10:27:00;;;;;;;2.90;0.80;;;;;;;22.38;31.91;101135.08;89055;1265;97303;-59
2022/09/02 10:29:32;;;;;;;;;;;;;;;22.40;31.51;101127.82;89033;1265;88038;-59